Time;durP1;ratioP1;P1;durP2;ratioP2;P2;SDS_P1;SDS_P2;PMS_P1;PMS_P2;Temp;Humidity;BMP_temperature;BMP_pressure;BME280_temperature;BME280_humidity;BME280_pressure;Samples;Min_cycle;Max_cycle;Signal;HPM_P1;HPM_P2
2023/09/24 00:00:32;;;;;;;3.75;3.47;;;;;;;;;;5094666;28;20109;-62
2023/09/24 00:02:58;;;;;;;4.15;3.20;;;;;;;;;;5094752;28;20032;-62
2023/09/24 00:05:24;;;;;;;4.22;3.08;;;;;;;;;;5076188;28;20154;-62
2023/09/24 00:07:50;;;;;;;4.50;3.45;;;;;;;;;;5094421;28;20474;-62
2023/09/24 00:10:16;;;;;;;3.80;3.50;;;;;;;;;;5094363;28;20031;-59
2023/09/24 00:12:42;;;;;;;3.88;3.35;;;;;;;;;;5094542;28;20028;-59
2023/09/24 00:15:08;;;;;;;3.35;3.05;;;;;;;;;;5094316;28;20035;-59
2023/09/24 00:17:34;;;;;;;4.35;3.33;;;;;;;;;;5094685;28;20413;-59
2023/09/24 00:19:59;;;;;;;4.38;3.17;;;;;;;;;;5076996;28;20081;-59
2023/09/24 00:22:24;;;;;;;5.20;3.38;;;;;;;;;;5094276;28;20040;-59
2023/09/24 00:24:50;;;;;;;4.63;3.30;;;;;;;;;;5093465;28;20035;-58
2023/09/24 00:27:15;;;;;;;3.90;3.13;;;;;;;;;;5094057;28;20035;-61
2023/09/24 00:29:42;;;;;;;4.07;2.97;;;;;;;;;;5076690;28;20046;-62
2023/09/24 00:32:07;;;;;;;4.07;3.00;;;;;;;;;;5094000;28;20028;-62
2023/09/24 00:34:34;;;;;;;5.60;3.15;;;;;;;;;;5076328;28;20114;-62
2023/09/24 00:36:59;;;;;;;3.55;3.25;;;;;;;;;;5093944;28;20162;-62
2023/09/24 00:39:25;;;;;;;5.38;3.22;;;;;;;;;;5081328;28;20153;-62
2023/09/24 00:41:50;;;;;;;5.10;3.22;;;;;;;;;;5101020;28;20078;-62
2023/09/24 00:44:15;;;;;;;4.07;3.35;;;;;;;;;;5082564;28;20035;-62
2023/09/24 00:46:44;;;;;;;4.60;3.28;;;;;;;;;;5082973;28;20481;-62
2023/09/24 00:49:09;;;;;;;3.70;3.22;;;;;;;;;;5100626;28;20028;-62
2023/09/24 00:51:34;;;;;;;4.20;3.60;;;;;;;;;;5100738;28;20362;-62
2023/09/24 00:54:01;;;;;;;3.55;3.05;;;;;;;;;;5099261;28;20077;-62
2023/09/24 00:56:27;;;;;;;6.60;3.10;;;;;;;;;;5100805;28;20085;-61
2023/09/24 00:58:53;;;;;;;4.18;3.10;;;;;;;;;;5100627;28;20034;-62
2023/09/24 01:01:24;;;;;;;3.05;2.83;;;;;;;;;;5082147;28;20032;-61
2023/09/24 01:03:50;;;;;;;3.22;2.92;;;;;;;;;;5100715;28;20025;-62
2023/09/24 01:06:17;;;;;;;2.80;2.60;;;;;;;;;;5082718;28;20035;-62
2023/09/24 01:08:42;;;;;;;5.97;2.60;;;;;;;;;;5082090;28;20244;-62
2023/09/24 01:11:08;;;;;;;3.50;2.65;;;;;;;;;;5100591;28;20466;-62
2023/09/24 01:13:37;;;;;;;3.33;2.70;;;;;;;;;;5082689;28;20343;-62
2023/09/24 01:16:04;;;;;;;5.90;2.67;;;;;;;;;;5100442;28;20372;-62
2023/09/24 01:18:31;;;;;;;2.85;2.58;;;;;;;;;;5100753;28;20355;-62
2023/09/24 01:20:56;;;;;;;5.10;2.15;;;;;;;;;;5100409;28;20043;-62
2023/09/24 01:23:22;;;;;;;2.28;2.17;;;;;;;;;;5082314;28;20640;-63
2023/09/24 01:25:48;;;;;;;4.55;2.47;;;;;;;;;;5100586;28;20065;-63
2023/09/24 01:28:14;;;;;;;2.17;1.80;;;;;;;;;;5082560;28;20122;-62
2023/09/24 01:30:40;;;;;;;3.13;2.25;;;;;;;;;;5100464;28;20020;-62
2023/09/24 01:33:05;;;;;;;5.47;2.10;;;;;;;;;;5082274;28;20531;-63
2023/09/24 01:35:32;;;;;;;2.60;1.98;;;;;;;;;;5100597;28;20362;-63
2023/09/24 01:38:04;;;;;;;3.25;2.25;;;;;;;;;;5100309;28;20032;-63
2023/09/24 01:40:33;;;;;;;4.10;2.30;;;;;;;;;;5082420;28;20024;-62
2023/09/24 01:42:59;;;;;;;4.07;2.25;;;;;;;;;;5081819;28;20111;-59
2023/09/24 01:45:26;;;;;;;2.47;2.22;;;;;;;;;;5082432;28;20085;-58
2023/09/24 01:47:51;;;;;;;1.90;1.70;;;;;;;;;;5081695;28;20073;-59
2023/09/24 01:50:17;;;;;;;2.67;2.20;;;;;;;;;;5098029;28;20400;-59
2023/09/24 01:52:44;;;;;;;2.45;1.88;;;;;;;;;;5096656;28;20043;-59
2023/09/24 01:55:13;;;;;;;1.80;1.70;;;;;;;;;;5096517;28;20055;-59
2023/09/24 01:57:40;;;;;;;1.65;1.55;;;;;;;;;;5096825;28;20076;-59
2023/09/24 02:00:11;;;;;;;2.17;1.73;;;;;;;;;;5095385;28;20028;-59
2023/09/24 02:02:40;;;;;;;2.03;1.92;;;;;;;;;;5097160;28;20026;-59
2023/09/24 02:05:10;;;;;;;2.28;2.03;;;;;;;;;;5096935;28;20179;-59
2023/09/24 02:07:38;;;;;;;3.30;1.67;;;;;;;;;;5096514;28;20086;-59
2023/09/24 02:10:05;;;;;;;2.10;1.90;;;;;;;;;;5096975;28;20115;-62
2023/09/24 02:12:34;;;;;;;4.28;1.98;;;;;;;;;;5096574;28;20466;-62
2023/09/24 02:14:59;;;;;;;3.15;1.73;;;;;;;;;;5077957;28;20082;-63
2023/09/24 02:17:25;;;;;;;1.83;1.73;;;;;;;;;;5096131;28;20032;-61
2023/09/24 02:19:54;;;;;;;2.42;1.90;;;;;;;;;;5096046;28;20020;-62
2023/09/24 02:22:22;;;;;;;2.10;2.00;;;;;;;;;;5065972;28;20456;-62
2023/09/24 02:24:48;;;;;;;3.92;2.10;;;;;;;;;;5076009;28;20354;-61
2023/09/24 02:27:13;;;;;;;3.42;1.73;;;;;;;;;;5076015;28;20036;-61
2023/09/24 02:29:39;;;;;;;3.47;1.85;;;;;;;;;;5058191;28;20339;-57
2023/09/24 02:32:06;;;;;;;2.72;1.95;;;;;;;;;;5076364;28;20043;-59
2023/09/24 02:34:31;;;;;;;2.72;1.88;;;;;;;;;;5058525;28;20040;-59
2023/09/24 02:36:57;;;;;;;2.60;1.70;;;;;;;;;;5075947;28;20032;-59
2023/09/24 02:39:22;;;;;;;1.88;1.67;;;;;;;;;;5058310;28;20081;-59
2023/09/24 02:41:49;;;;;;;2.42;1.50;;;;;;;;;;5058127;28;20032;-59
2023/09/24 02:44:17;;;;;;;3.08;1.92;;;;;;;;;;5075824;28;20033;-59
2023/09/24 02:46:44;;;;;;;2.10;1.90;;;;;;;;;;5057975;28;20033;-59
2023/09/24 02:49:10;;;;;;;1.77;1.65;;;;;;;;;;5075702;28;20540;-58
2023/09/24 02:51:35;;;;;;;2.67;1.55;;;;;;;;;;5076006;28;20074;-60
2023/09/24 02:54:01;;;;;;;2.72;1.58;;;;;;;;;;5075497;28;20044;-61
2023/09/24 02:56:28;;;;;;;2.00;1.77;;;;;;;;;;5075369;28;20366;-61
2023/09/24 02:58:55;;;;;;;1.90;1.80;;;;;;;;;;5075282;28;20020;-61
2023/09/24 03:01:20;;;;;;;1.65;1.55;;;;;;;;;;5056599;28;20017;-61
2023/09/24 03:03:46;;;;;;;2.20;1.50;;;;;;;;;;5075020;28;20025;-61
2023/09/24 03:06:13;;;;;;;2.70;1.50;;;;;;;;;;5075383;28;20394;-61
2023/09/24 03:08:38;;;;;;;2.63;1.65;;;;;;;;;;5075374;28;20085;-61
2023/09/24 03:11:11;;;;;;;1.98;1.88;;;;;;;;;;5057452;28;20486;-62
2023/09/24 03:13:36;;;;;;;1.70;1.50;;;;;;;;;;5075426;28;20039;-62
2023/09/24 03:16:02;;;;;;;2.72;1.75;;;;;;;;;;5056809;28;20036;-62
2023/09/24 03:18:27;;;;;;;2.20;1.80;;;;;;;;;;5074883;28;20040;-62
2023/09/24 03:20:54;;;;;;;3.58;1.50;;;;;;;;;;5057350;28;20035;-61
2023/09/24 03:23:19;;;;;;;1.85;1.60;;;;;;;;;;5076968;28;20081;-62
2023/09/24 03:25:44;;;;;;;1.73;1.63;;;;;;;;;;5095040;28;20032;-62
2023/09/24 03:28:11;;;;;;;1.88;1.77;;;;;;;;;;5095488;28;20032;-62
2023/09/24 03:30:36;;;;;;;1.90;1.60;;;;;;;;;;5094952;28;20531;-61
2023/09/24 03:33:03;;;;;;;2.08;1.83;;;;;;;;;;5095261;28;20028;-62
2023/09/24 03:35:29;;;;;;;2.53;1.92;;;;;;;;;;5076807;28;20052;-62
2023/09/24 03:37:55;;;;;;;3.67;1.75;;;;;;;;;;5076498;28;20453;-61
2023/09/24 03:40:21;;;;;;;2.35;1.83;;;;;;;;;;5076647;28;20043;-61
2023/09/24 03:42:47;;;;;;;1.77;1.63;;;;;;;;;;5094875;28;20031;-61
2023/09/24 03:45:13;;;;;;;2.20;1.70;;;;;;;;;;5094789;28;20481;-61
2023/09/24 03:47:39;;;;;;;2.38;1.90;;;;;;;;;;5076487;28;20031;-61
2023/09/24 03:50:05;;;;;;;2.03;1.58;;;;;;;;;;5094950;28;20112;-61
2023/09/24 03:52:31;;;;;;;4.18;1.90;;;;;;;;;;5076178;28;20138;-61
2023/09/24 03:54:59;;;;;;;1.63;1.52;;;;;;;;;;5095106;28;20468;-61
2023/09/24 03:57:27;;;;;;;3.33;1.58;;;;;;;;;;5094662;28;20035;-61
2023/09/24 03:59:56;;;;;;;2.00;1.55;;;;;;;;;;5093330;28;20450;-61
2023/09/24 04:02:22;;;;;;;1.73;1.63;;;;;;;;;;5076346;28;20358;-61
2023/09/24 04:04:47;;;;;;;2.08;1.90;;;;;;;;;;5094653;28;20028;-61
2023/09/24 04:07:15;;;;;;;1.58;1.48;;;;;;;;;;5076633;28;20028;-61
2023/09/24 04:09:40;;;;;;;1.63;1.52;;;;;;;;;;5076602;28;20043;-61
2023/09/24 04:12:08;;;;;;;1.63;1.48;;;;;;;;;;5094829;28;20172;-61
2023/09/24 04:14:33;;;;;;;2.75;1.58;;;;;;;;;;5092706;28;20119;-61
2023/09/24 04:16:58;;;;;;;2.25;1.73;;;;;;;;;;5094733;28;20115;-61
2023/09/24 04:19:24;;;;;;;3.65;2.00;;;;;;;;;;5094586;28;20024;-61
2023/09/24 04:21:50;;;;;;;2.35;1.92;;;;;;;;;;5093944;28;20085;-61
2023/09/24 04:24:16;;;;;;;1.58;1.48;;;;;;;;;;5094122;28;20442;-61
2023/09/24 04:26:41;;;;;;;1.75;1.65;;;;;;;;;;5093995;28;20106;-61
2023/09/24 04:29:07;;;;;;;2.05;1.52;;;;;;;;;;5093741;28;20111;-61
2023/09/24 04:31:32;;;;;;;2.97;1.67;;;;;;;;;;5094017;28;20539;-62
2023/09/24 04:33:58;;;;;;;3.00;1.73;;;;;;;;;;5094577;28;20036;-62
2023/09/24 04:36:23;;;;;;;2.15;2.00;;;;;;;;;;5094310;28;20063;-61
2023/09/24 04:38:48;;;;;;;2.90;1.48;;;;;;;;;;5093972;28;20082;-62
2023/09/24 04:41:15;;;;;;;2.30;1.63;;;;;;;;;;5094436;28;20028;-61
2023/09/24 04:43:41;;;;;;;2.03;1.90;;;;;;;;;;5094533;28;20024;-61
2023/09/24 04:46:07;;;;;;;1.80;1.70;;;;;;;;;;5094044;28;20531;-61
2023/09/24 04:48:33;;;;;;;3.45;1.80;;;;;;;;;;5094191;28;20024;-61
2023/09/24 04:50:58;;;;;;;3.47;1.67;;;;;;;;;;5094079;28;20359;-61
2023/09/24 04:53:24;;;;;;;1.73;1.63;;;;;;;;;;5093890;28;20039;-61
2023/09/24 04:55:49;;;;;;;2.92;1.83;;;;;;;;;;5094259;28;20454;-62
2023/09/24 04:58:15;;;;;;;3.58;1.80;;;;;;;;;;5094106;28;20040;-62
2023/09/24 05:00:41;;;;;;;2.28;1.73;;;;;;;;;;5093731;28;20028;-61
2023/09/24 05:03:07;;;;;;;1.95;1.75;;;;;;;;;;5093808;28;20454;-61
2023/09/24 05:05:32;;;;;;;2.35;1.73;;;;;;;;;;5093951;28;20050;-61
2023/09/24 05:07:58;;;;;;;1.80;1.58;;;;;;;;;;5094177;28;20029;-62
2023/09/24 05:10:23;;;;;;;1.50;1.40;;;;;;;;;;5093567;28;20445;-62
2023/09/24 05:12:48;;;;;;;1.92;1.83;;;;;;;;;;5094013;28;20028;-62
2023/09/24 05:15:14;;;;;;;1.77;1.50;;;;;;;;;;5093762;28;20028;-62
2023/09/24 05:17:39;;;;;;;2.88;1.48;;;;;;;;;;5093386;28;20131;-62
2023/09/24 05:20:07;;;;;;;2.38;1.58;;;;;;;;;;5093118;28;20023;-61
2023/09/24 05:22:33;;;;;;;2.15;1.55;;;;;;;;;;5093110;28;20063;-62
2023/09/24 05:24:58;;;;;;;2.00;1.77;;;;;;;;;;5094137;28;20105;-62
2023/09/24 05:27:26;;;;;;;1.67;1.55;;;;;;;;;;5097193;28;20466;-59
2023/09/24 05:29:51;;;;;;;1.80;1.70;;;;;;;;;;5097417;28;20047;-58
2023/09/24 05:32:17;;;;;;;2.08;1.50;;;;;;;;;;5097172;28;20466;-58
2023/09/24 05:34:43;;;;;;;2.10;1.50;;;;;;;;;;5097452;28;20481;-58
2023/09/24 05:37:08;;;;;;;1.80;1.58;;;;;;;;;;5096669;28;20050;-59
2023/09/24 05:39:35;;;;;;;4.38;1.77;;;;;;;;;;5096474;28;20031;-58
2023/09/24 05:42:01;;;;;;;2.03;1.90;;;;;;;;;;5096688;28;20034;-57
2023/09/24 05:44:30;;;;;;;2.08;1.52;;;;;;;;;;5096297;28;20077;-60
2023/09/24 05:46:55;;;;;;;1.77;1.60;;;;;;;;;;5096657;28;20394;-61
2023/09/24 05:49:20;;;;;;;2.25;1.65;;;;;;;;;;5096309;28;20034;-62
2023/09/24 05:51:46;;;;;;;2.38;1.70;;;;;;;;;;5095984;28;20035;-62
2023/09/24 05:54:11;;;;;;;1.95;1.67;;;;;;;;;;5095583;28;20059;-60
2023/09/24 05:56:37;;;;;;;1.67;1.58;;;;;;;;;;5095746;28;20040;-59
2023/09/24 05:59:02;;;;;;;2.58;1.75;;;;;;;;;;5095617;28;20170;-59
2023/09/24 06:01:28;;;;;;;2.05;1.95;;;;;;;;;;5095396;28;20064;-59
2023/09/24 06:03:53;;;;;;;2.55;2.35;;;;;;;;;;5094961;28;20567;-61
2023/09/24 06:06:19;;;;;;;2.60;2.40;;;;;;;;;;5095424;28;20032;-59
2023/09/24 06:08:44;;;;;;;2.38;2.17;;;;;;;;;;5095113;28;20075;-58
2023/09/24 06:11:09;;;;;;;2.95;2.17;;;;;;;;;;5095280;28;20114;-58
2023/09/24 06:13:35;;;;;;;2.40;2.20;;;;;;;;;;5076894;28;20031;-58
2023/09/24 06:16:01;;;;;;;1.95;1.85;;;;;;;;;;5092861;28;20489;-58
2023/09/24 06:18:27;;;;;;;4.80;2.30;;;;;;;;;;5096171;28;20032;-58
2023/09/24 06:24:29;;;;;;;2.95;2.05;;;;;;;;;;5096381;28;20121;-57
2023/09/24 06:30:29;;;;;;;2.97;2.78;;;;;;;;;;5096247;28;20023;-57
2023/09/24 06:36:29;;;;;;;2.83;2.45;;;;;;;;;;5095751;28;20081;-57
2023/09/24 06:42:29;;;;;;;2.95;2.75;;;;;;;;;;5096038;28;20023;-57
2023/09/24 06:48:29;;;;;;;2.50;2.30;;;;;;;;;;5095939;28;20109;-58
2023/09/24 06:54:31;;;;;;;2.50;2.30;;;;;;;;;;5095788;28;20512;-56
2023/09/24 07:00:32;;;;;;;1.60;1.50;;;;;;;;;;5095674;28;20484;-57
2023/09/24 07:06:32;;;;;;;1.70;1.60;;;;;;;;;;5095554;28;20073;-57
2023/09/24 07:12:33;;;;;;;1.85;1.75;;;;;;;;;;5095458;28;20027;-56
2023/09/24 07:23:02;;;;;;;3.08;1.80;;;;;;;;;;5095081;28;20137;-56
2023/09/24 07:29:02;;;;;;;50.00;21.45;;;;;;;;;;5095126;28;20027;-56
2023/09/24 07:35:03;;;;;;;2.30;2.20;;;;;;;;;;5094738;28;20041;-56
2023/09/24 07:41:03;;;;;;;1.55;1.45;;;;;;;;;;5094658;28;20031;-57
2023/09/24 07:47:03;;;;;;;1.45;1.35;;;;;;;;;;5094772;28;20042;-56
2023/09/24 07:53:05;;;;;;;2.78;1.95;;;;;;;;;;5094660;28;20111;-56
2023/09/24 07:59:06;;;;;;;1.55;1.45;;;;;;;;;;5094373;28;20072;-56
2023/09/24 08:05:08;;;;;;;1.92;1.83;;;;;;;;;;5094489;28;20401;-56
2023/09/24 08:11:09;;;;;;;1.80;1.70;;;;;;;;;;5094407;28;20023;-56
2023/09/24 08:17:10;;;;;;;1.50;1.40;;;;;;;;;;5093978;28;20055;-56
2023/09/24 08:24:16;;;;;;;2.55;1.80;;;;;;;;;;5052034;28;20398;-56
2023/09/24 08:29:46;;;;;;;1.35;1.30;;;;;;;;;;5051862;28;20048;-56
2023/09/24 08:32:11;;;;;;;2.22;1.50;;;;;;;;;;5051120;28;20118;-56
2023/09/24 08:34:36;;;;;;;2.15;1.52;;;;;;;;;;5049286;28;20080;-56
2023/09/24 08:37:03;;;;;;;1.88;1.52;;;;;;;;;;5048918;28;20037;-56
2023/09/24 08:39:28;;;;;;;1.50;1.40;;;;;;;;;;5048805;28;20036;-56
2023/09/24 08:41:54;;;;;;;1.83;1.73;;;;;;;;;;5049289;28;20055;-56
2023/09/24 08:47:54;;;;;;;1.75;1.58;;;;;;;;;;5051485;28;20036;-56
2023/09/24 08:53:55;;;;;;;1.52;1.42;;;;;;;;;;5093876;28;20027;-56
2023/09/24 08:59:56;;;;;;;1.50;1.40;;;;;;;;;;5095970;28;20428;-56
2023/09/24 09:05:56;;;;;;;1.50;1.40;;;;;;;;;;5097896;28;20019;-56
2023/09/24 09:11:56;;;;;;;1.60;1.50;;;;;;;;;;5097738;28;20111;-56
2023/09/24 09:21:34;;;;;;;1.50;1.40;;;;;;;;;;5097622;28;20054;-56
2023/09/24 09:27:39;;;;;;;1.50;1.40;;;;;;;;;;5097230;28;20102;-56
2023/09/24 09:33:41;;;;;;;1.00;1.00;;;;;;;;;;5097353;28;20076;-56
2023/09/24 09:39:43;;;;;;;1.17;1.17;;;;;;;;;;5097280;28;20115;-56
2023/09/24 09:45:44;;;;;;;1.42;1.33;;;;;;;;;;5097145;28;20031;-56
2023/09/24 09:51:48;;;;;;;1.40;1.30;;;;;;;;;;5096791;28;20069;-56
2023/09/24 09:57:14;;;;;;;1.55;1.45;;;;;;;;;;5095950;28;20040;-56
2023/09/24 09:59:40;;;;;;;2.03;1.38;;;;;;;;;;5096549;28;20107;-56
2023/09/24 10:02:06;;;;;;;1.42;1.10;;;;;;;;;;5096969;28;20024;-56
2023/09/24 10:04:32;;;;;;;1.27;0.93;;;;;;;;;;5094244;28;20047;-59
2023/09/24 10:07:00;;;;;;;1.33;1.23;;;;;;;;;;5093445;28;20106;-63
2023/09/24 10:09:27;;;;;;;1.13;1.13;;;;;;;;;;5096746;28;20020;-63
2023/09/24 10:11:53;;;;;;;1.13;1.13;;;;;;;;;;5096137;28;20020;-63
2023/09/24 10:14:35;;;;;;;1.30;1.20;;;;;;;;;;5078644;28;20075;-63
2023/09/24 10:17:16;;;;;;;1.40;1.30;;;;;;;;;;5095538;28;20031;-59
2023/09/24 10:19:51;;;;;;;2.05;1.20;;;;;;;;;;5084355;28;20040;-59
2023/09/24 10:22:34;;;;;;;1.98;1.40;;;;;;;;;;5088503;28;20449;-59
2023/09/24 10:25:01;;;;;;;1.23;1.17;;;;;;;;;;5084586;28;20036;-63
2023/09/24 10:27:32;;;;;;;1.70;1.60;;;;;;;;;;5068848;28;20085;-61
2023/09/24 10:30:01;;;;;;;1.77;1.35;;;;;;;;;;5095614;28;20035;-58
2023/09/24 10:32:26;;;;;;;4.07;2.42;;;;;;;;;;5096324;28;20038;-59
2023/09/24 10:34:54;;;;;;;5.75;3.13;;;;;;;;;;5076952;28;20468;-59
2023/09/24 10:37:29;;;;;;;3.60;1.80;;;;;;;;;;5095380;28;20080;-59
2023/09/24 10:39:58;;;;;;;1.58;1.45;;;;;;;;;;5095118;28;20377;-59
2023/09/24 10:42:24;;;;;;;1.90;1.40;;;;;;;;;;5094717;28;20028;-59
2023/09/24 10:45:08;;;;;;;2.88;1.55;;;;;;;;;;5094542;28;20021;-59
2023/09/24 10:47:40;;;;;;;2.33;1.40;;;;;;;;;;5095650;28;20536;-59
2023/09/24 10:50:06;;;;;;;1.50;1.40;;;;;;;;;;5095922;28;20020;-59
2023/09/24 10:56:08;;;;;;;1.63;1.52;;;;;;;;;;5095702;28;20031;-59
2023/09/24 11:02:18;;;;;;;11.73;7.00;;;;;;;;;;5095670;28;20089;-59
2023/09/24 11:08:23;;;;;;;13.98;8.93;;;;;;;;;;5095573;28;20154;-59
2023/09/24 11:14:25;;;;;;;2.70;1.30;;;;;;;;;;5095467;28;20465;-59
2023/09/24 11:24:27;;;;;;;4.75;2.65;;;;;;;;;;5094571;28;20022;-59
2023/09/24 11:30:42;;;;;;;2.75;2.35;;;;;;;;;;5095146;28;20018;-59
2023/09/24 11:36:27;;;;;;;4.47;3.28;;;;;;;;;;5095011;28;19927;-59
2023/09/24 11:42:27;;;;;;;1.30;1.15;;;;;;;;;;5094931;28;20468;-59
2023/09/24 11:48:28;;;;;;;4.00;3.15;;;;;;;;;;5094796;28;20120;-59
2023/09/24 11:54:28;;;;;;;5.10;1.77;;;;;;;;;;5094723;28;20031;-59
2023/09/24 12:00:28;;;;;;;2.10;1.90;;;;;;;;;;5094638;28;20141;-59
2023/09/24 12:06:29;;;;;;;1.65;1.50;;;;;;;;;;5094538;28;20027;-59
2023/09/24 12:12:29;;;;;;;8.15;1.73;;;;;;;;;;5094432;28;20085;-59
2023/09/24 12:18:30;;;;;;;2.08;1.80;;;;;;;;;;5094322;28;20032;-59
2023/09/24 12:28:58;;;;;;;3.72;2.88;;;;;;;;;;5094253;28;20440;-59
2023/09/24 12:34:59;;;;;;;1.95;1.80;;;;;;;;;;5093820;28;20048;-59
2023/09/24 12:41:00;;;;;;;4.70;2.22;;;;;;;;;;5094081;28;20023;-59
2023/09/24 12:47:00;;;;;;;1.85;1.35;;;;;;;;;;5093737;28;20563;-59
2023/09/24 12:53:00;;;;;;;2.25;1.50;;;;;;;;;;5093929;28;20378;-59
2023/09/24 12:59:01;;;;;;;0.95;0.95;;;;;;;;;;5093881;28;20381;-59
2023/09/24 13:05:01;;;;;;;5.45;1.90;;;;;;;;;;5093830;28;20042;-59
2023/09/24 13:11:02;;;;;;;4.18;2.10;;;;;;;;;;5093808;28;20077;-59
2023/09/24 13:17:03;;;;;;;2.85;2.03;;;;;;;;;;5093577;28;20094;-59
2023/09/24 13:23:04;;;;;;;1.63;1.33;;;;;;;;;;5093449;28;20023;-62
2023/09/24 13:29:18;;;;;;;3.20;1.90;;;;;;;;;;5093381;28;20051;-63
2023/09/24 13:35:19;;;;;;;1.20;1.10;;;;;;;;;;5093339;28;20126;-63
2023/09/24 13:41:20;;;;;;;2.08;1.45;;;;;;;;;;5093286;28;20492;-63
2023/09/24 13:47:21;;;;;;;3.35;1.50;;;;;;;;;;5096009;28;20153;-63
2023/09/24 13:53:22;;;;;;;5.60;3.65;;;;;;;;;;5097066;28;20090;-63
2023/09/24 13:59:23;;;;;;;2.60;1.23;;;;;;;;;;5096934;28;20121;-63
2023/09/24 14:05:25;;;;;;;6.35;3.80;;;;;;;;;;5096797;28;20078;-63
2023/09/24 14:18:17;;;;;;;7.45;6.72;;;;;;;;;;5096219;28;20089;-63
2023/09/24 14:24:18;;;;;;;11.57;8.90;;;;;;;;;;5095840;28;20106;-63
2023/09/24 14:26:44;;;;;;;7.47;6.47;;;;;;;;;;5095696;28;20383;-63
2023/09/24 14:29:09;;;;;;;11.65;6.97;;;;;;;;;;5096368;28;20036;-63
2023/09/24 14:31:35;;;;;;;23.92;12.75;;;;;;;;;;5096293;28;20036;-64
2023/09/24 14:34:01;;;;;;;5.45;3.70;;;;;;;;;;5095978;28;20035;-63
2023/09/24 14:36:27;;;;;;;6.60;4.85;;;;;;;;;;5077638;28;20122;-65
2023/09/24 14:38:52;;;;;;;9.98;6.32;;;;;;;;;;5096325;28;20028;-66
2023/09/24 14:41:18;;;;;;;8.48;5.35;;;;;;;;;;5095290;28;20028;-60
2023/09/24 14:43:45;;;;;;;9.63;6.63;;;;;;;;;;5077607;28;20023;-59
2023/09/24 14:46:12;;;;;;;1.75;1.10;;;;;;;;;;5096002;28;20028;-65
2023/09/24 14:48:37;;;;;;;10.65;6.18;;;;;;;;;;5094965;28;20056;-63
2023/09/24 14:51:03;;;;;;;1.73;1.10;;;;;;;;;;5095330;28;20063;-63
2023/09/24 14:53:29;;;;;;;3.13;1.80;;;;;;;;;;5095400;28;20465;-64
2023/09/24 14:55:57;;;;;;;0.85;0.82;;;;;;;;;;5095332;28;20474;-64
2023/09/24 14:58:23;;;;;;;1.42;1.30;;;;;;;;;;5095522;28;20527;-64
2023/09/24 15:00:49;;;;;;;1.63;1.50;;;;;;;;;;5095565;28;20020;-64
2023/09/24 15:03:15;;;;;;;8.43;5.35;;;;;;;;;;5077696;28;20016;-64
2023/09/24 15:05:42;;;;;;;3.10;1.77;;;;;;;;;;5095565;28;20031;-66
2023/09/24 15:08:11;;;;;;;6.03;3.58;;;;;;;;;;5095566;28;20032;-64
2023/09/24 15:10:40;;;;;;;1.88;1.75;;;;;;;;;;5095559;28;20089;-64
2023/09/24 15:13:06;;;;;;;9.00;4.22;;;;;;;;;;5095818;28;20043;-64
2023/09/24 15:15:33;;;;;;;3.08;1.40;;;;;;;;;;5076723;28;20020;-63
2023/09/24 15:17:58;;;;;;;7.13;3.70;;;;;;;;;;5095501;28;20089;-63
2023/09/24 15:20:25;;;;;;;6.70;2.60;;;;;;;;;;5076921;28;20032;-63
2023/09/24 15:22:50;;;;;;;15.48;7.20;;;;;;;;;;5077467;28;20021;-63
2023/09/24 15:25:16;;;;;;;3.42;2.00;;;;;;;;;;5095360;28;20427;-64
2023/09/24 15:27:41;;;;;;;1.00;0.95;;;;;;;;;;5095236;28;20377;-61
2023/09/24 15:30:07;;;;;;;12.70;5.50;;;;;;;;;;5095512;28;20032;-63
2023/09/24 15:32:33;;;;;;;2.78;2.13;;;;;;;;;;5095262;28;20104;-64
2023/09/24 15:34:58;;;;;;;3.63;2.78;;;;;;;;;;5095511;28;20036;-62
2023/09/24 15:37:24;;;;;;;3.55;2.33;;;;;;;;;;5095197;28;20101;-62
2023/09/24 15:39:49;;;;;;;2.22;1.13;;;;;;;;;;5094540;28;20458;-62
2023/09/24 15:42:15;;;;;;;3.05;1.55;;;;;;;;;;5094182;28;20024;-62
2023/09/24 15:44:40;;;;;;;2.42;1.38;;;;;;;;;;5094870;28;20024;-62
2023/09/24 15:47:05;;;;;;;7.03;3.28;;;;;;;;;;5095015;28;20028;-62
2023/09/24 15:49:34;;;;;;;1.65;1.40;;;;;;;;;;5076409;28;20028;-62
2023/09/24 15:52:00;;;;;;;4.82;1.92;;;;;;;;;;5094572;28;20022;-62
2023/09/24 15:54:25;;;;;;;28.25;9.30;;;;;;;;;;5094345;28;20110;-62
2023/09/24 15:56:53;;;;;;;33.20;9.43;;;;;;;;;;5075800;28;20377;-62
2023/09/24 15:59:19;;;;;;;16.02;6.78;;;;;;;;;;5093187;28;20043;-62
2023/09/24 16:01:47;;;;;;;26.58;10.80;;;;;;;;;;5076179;28;20024;-62
2023/09/24 16:04:12;;;;;;;4.18;2.35;;;;;;;;;;5094083;28;20032;-62
2023/09/24 16:06:38;;;;;;;5.20;2.97;;;;;;;;;;5094057;28;20035;-62
2023/09/24 16:09:04;;;;;;;72.55;26.25;;;;;;;;;;5093640;28;20040;-62
2023/09/24 16:11:30;;;;;;;2.35;1.73;;;;;;;;;;5076084;28;20493;-62
2023/09/24 16:13:55;;;;;;;23.80;11.27;;;;;;;;;;5093826;28;20055;-57
2023/09/24 16:16:22;;;;;;;6.90;4.13;;;;;;;;;;5094092;28;20032;-61
2023/09/24 16:18:47;;;;;;;9.63;4.78;;;;;;;;;;5094177;28;20430;-62
2023/09/24 16:21:13;;;;;;;1.95;1.63;;;;;;;;;;5094450;28;20035;-62
2023/09/24 16:23:38;;;;;;;4.18;2.95;;;;;;;;;;5093972;28;20036;-62
2023/09/24 16:26:08;;;;;;;6.22;4.53;;;;;;;;;;5094225;28;20028;-62
2023/09/24 16:28:33;;;;;;;9.95;5.75;;;;;;;;;;5094372;28;20474;-62
2023/09/24 16:31:02;;;;;;;15.10;7.28;;;;;;;;;;5094146;28;20028;-62
2023/09/24 16:33:28;;;;;;;6.97;4.53;;;;;;;;;;5076027;28;20051;-62
2023/09/24 16:35:53;;;;;;;7.90;4.47;;;;;;;;;;5087601;28;20477;-62
2023/09/24 16:38:18;;;;;;;4.53;3.10;;;;;;;;;;5072880;28;20040;-62
2023/09/24 16:40:53;;;;;;;6.53;3.80;;;;;;;;;;5090878;28;20114;-62
2023/09/24 16:43:18;;;;;;;18.55;9.52;;;;;;;;;;5091073;28;20496;-62
2023/09/24 16:45:47;;;;;;;2.03;1.80;;;;;;;;;;5090625;28;20052;-62
2023/09/24 16:48:13;;;;;;;9.02;5.95;;;;;;;;;;5090805;28;20032;-62
2023/09/24 16:50:38;;;;;;;38.97;18.95;;;;;;;;;;5090919;28;20038;-62
2023/09/24 16:53:04;;;;;;;10.52;6.70;;;;;;;;;;5091329;28;20070;-62
2023/09/24 16:55:33;;;;;;;12.45;5.18;;;;;;;;;;5090615;28;20028;-62
2023/09/24 16:57:59;;;;;;;9.60;4.93;;;;;;;;;;5091044;28;20119;-62
2023/09/24 17:00:24;;;;;;;9.95;5.20;;;;;;;;;;5090627;28;20119;-62
2023/09/24 17:02:49;;;;;;;34.65;18.17;;;;;;;;;;5090409;28;20064;-62
2023/09/24 17:05:15;;;;;;;30.73;15.75;;;;;;;;;;5089940;28;20035;-62
2023/09/24 17:07:41;;;;;;;9.32;4.82;;;;;;;;;;5090406;28;20090;-62
2023/09/24 17:10:09;;;;;;;12.63;6.90;;;;;;;;;;5090128;28;20040;-62
2023/09/24 17:12:34;;;;;;;60.22;36.65;;;;;;;;;;5072385;28;20059;-62
2023/09/24 17:15:00;;;;;;;3.42;3.13;;;;;;;;;;5090980;28;20040;-62
2023/09/24 17:17:25;;;;;;;18.33;11.40;;;;;;;;;;5103397;28;20031;-62
2023/09/24 17:19:50;;;;;;;15.90;10.18;;;;;;;;;;5092115;28;20346;-62
2023/09/24 17:22:16;;;;;;;10.32;7.68;;;;;;;;;;5112802;28;20023;-62
2023/09/24 17:24:42;;;;;;;12.18;9.10;;;;;;;;;;5114321;28;20115;-62
2023/09/24 17:27:07;;;;;;;3.50;3.20;;;;;;;;;;5113819;28;20465;-62
2023/09/24 17:29:33;;;;;;;4.53;4.22;;;;;;;;;;5114300;28;20126;-62
2023/09/24 17:31:58;;;;;;;2.08;1.88;;;;;;;;;;5114550;28;20031;-62
2023/09/24 17:34:23;;;;;;;1.67;1.58;;;;;;;;;;5114449;28;20038;-62
2023/09/24 17:36:49;;;;;;;1.40;1.30;;;;;;;;;;5114270;28;20504;-62
2023/09/24 17:39:14;;;;;;;1.40;1.23;;;;;;;;;;5114892;28;20027;-62
2023/09/24 17:41:40;;;;;;;1.45;1.35;;;;;;;;;;5114719;28;20023;-62
2023/09/24 17:44:07;;;;;;;6.60;5.45;;;;;;;;;;5114409;28;20139;-62
2023/09/24 17:46:33;;;;;;;2.53;2.33;;;;;;;;;;5113641;28;20470;-62
2023/09/24 17:48:59;;;;;;;2.10;1.90;;;;;;;;;;5114550;28;20139;-62
2023/09/24 17:51:25;;;;;;;3.63;2.50;;;;;;;;;;5096255;28;20028;-62
2023/09/24 17:53:50;;;;;;;2.13;1.80;;;;;;;;;;5113685;28;20435;-62
2023/09/24 17:56:16;;;;;;;1.70;1.60;;;;;;;;;;5113912;28;20024;-62
2023/09/24 17:58:42;;;;;;;7.32;2.70;;;;;;;;;;5113621;28;20127;-62
2023/09/24 18:01:11;;;;;;;3.08;2.33;;;;;;;;;;5114141;28;20501;-62
2023/09/24 18:03:44;;;;;;;35.28;18.65;;;;;;;;;;5095398;28;20087;-63
2023/09/24 18:06:10;;;;;;;24.65;14.95;;;;;;;;;;5094671;28;20399;-62
2023/09/24 18:08:35;;;;;;;16.65;9.60;;;;;;;;;;5113609;28;20095;-62
2023/09/24 18:11:01;;;;;;;14.25;8.15;;;;;;;;;;5113853;28;20072;-62
2023/09/24 18:13:27;;;;;;;14.20;8.35;;;;;;;;;;5113106;28;20570;-62
2023/09/24 18:15:53;;;;;;;13.15;7.13;;;;;;;;;;5113449;28;20038;-62
2023/09/24 18:18:21;;;;;;;15.05;8.93;;;;;;;;;;5113856;28;20446;-62
2023/09/24 18:20:56;;;;;;;14.18;7.75;;;;;;;;;;5112341;28;20039;-62
2023/09/24 18:23:22;;;;;;;9.40;6.35;;;;;;;;;;5095437;28;20043;-62
2023/09/24 18:25:48;;;;;;;11.10;6.72;;;;;;;;;;5113041;28;20030;-63
2023/09/24 18:28:14;;;;;;;5.47;3.65;;;;;;;;;;5093727;28;20030;-62
2023/09/24 18:30:39;;;;;;;3.92;3.22;;;;;;;;;;5095140;28;20023;-63
2023/09/24 18:33:08;;;;;;;3.63;3.13;;;;;;;;;;5076349;28;20184;-62
2023/09/24 18:35:35;;;;;;;9.88;5.97;;;;;;;;;;5095305;28;20093;-62
2023/09/24 18:38:00;;;;;;;13.43;8.13;;;;;;;;;;5094601;28;20032;-63
2023/09/24 18:40:26;;;;;;;13.00;6.40;;;;;;;;;;5094696;28;20016;-63
2023/09/24 18:42:52;;;;;;;10.90;5.35;;;;;;;;;;5095152;28;20036;-63
2023/09/24 18:45:17;;;;;;;25.50;16.75;;;;;;;;;;5094084;28;20070;-63
2023/09/24 18:47:42;;;;;;;21.85;13.02;;;;;;;;;;5076628;28;20634;-62
2023/09/24 18:50:08;;;;;;;20.10;12.57;;;;;;;;;;5076298;28;20110;-62
2023/09/24 18:52:33;;;;;;;18.45;12.45;;;;;;;;;;5091903;28;20465;-62
2023/09/24 18:54:59;;;;;;;23.85;15.50;;;;;;;;;;5094072;28;20059;-62